Time;durP1;ratioP1;P1;durP2;ratioP2;P2;SDS_P1;SDS_P2;PMS_P1;PMS_P2;Temp;Humidity;BMP_temperature;BMP_pressure;BME280_temperature;BME280_humidity;BME280_pressure;Samples;Min_cycle;Max_cycle;Signal;HPM_P1;HPM_P2
2022/01/01 00:02:04;;;;;;;14.27;8.65;;;;;;;10.22;nan;-24102.53;5094284;28;20197;-70
2022/01/01 00:04:30;;;;;;;13.75;7.70;;;;;;;10.00;nan;-24096.31;5094305;28;20180;-68
2022/01/01 00:06:55;;;;;;;11.43;7.18;;;;;;;10.35;nan;-24106.06;5094052;28;20165;-68
2022/01/01 00:09:21;;;;;;;9.43;6.60;;;;;;;10.45;nan;-24109.03;5093972;28;20174;-68
2022/01/01 00:11:47;;;;;;;8.25;6.13;;;;;;;9.96;nan;-24095.19;5094329;28;20644;-68
2022/01/01 00:14:12;;;;;;;7.40;5.50;;;;;;;9.83;nan;-24091.50;5090265;28;20240;-68
2022/01/01 00:16:38;;;;;;;8.00;5.78;;;;;;;10.06;nan;-24098.16;5090595;28;20204;-68
2022/01/01 00:19:03;;;;;;;7.88;6.07;;;;;;;10.06;nan;-24098.00;5093542;28;20205;-68
2022/01/01 00:21:29;;;;;;;8.88;5.90;;;;;;;9.87;nan;-24092.63;5093851;28;20303;-69
2022/01/01 00:23:54;;;;;;;10.10;6.63;;;;;;;9.91;nan;-24093.78;5094204;28;20201;-68
2022/01/01 00:26:20;;;;;;;10.32;6.40;;;;;;;9.76;nan;-24089.66;5093436;28;20169;-69
2022/01/01 00:28:46;;;;;;;7.90;5.93;;;;;;;9.71;nan;-24088.41;5092985;28;20227;-68
2022/01/01 00:31:12;;;;;;;7.28;5.72;;;;;;;9.71;nan;-24088.25;5093285;28;20173;-68
2022/01/01 00:33:37;;;;;;;7.35;5.40;;;;;;;10.25;nan;-24103.38;5093534;28;20597;-68
2022/01/01 00:36:04;;;;;;;6.03;4.90;;;;;;;10.23;nan;-24102.81;5092977;28;20668;-68
2022/01/01 00:38:29;;;;;;;6.72;4.70;;;;;;;10.39;nan;-24107.19;5093259;28;20275;-68
2022/01/01 00:40:54;;;;;;;6.13;4.20;;;;;;;10.23;nan;-24102.66;5091823;28;20754;-68
2022/01/01 00:43:20;;;;;;;6.15;4.75;;;;;;;10.26;nan;-24103.53;5091284;28;20625;-68
2022/01/01 00:45:45;;;;;;;5.47;4.25;;;;;;;10.21;nan;-24102.25;5092991;28;20174;-68
2022/01/01 00:48:11;;;;;;;5.70;4.35;;;;;;;10.73;nan;-24116.63;5093173;28;20173;-68
2022/01/01 00:50:36;;;;;;;6.70;4.80;;;;;;;10.77;nan;-24117.91;5074805;28;20683;-69
2022/01/01 00:53:02;;;;;;;6.82;4.93;;;;;;;10.74;nan;-24117.06;5091625;28;20600;-68
2022/01/01 00:55:28;;;;;;;8.23;4.93;;;;;;;10.81;nan;-24119.03;5092875;28;20640;-68
2022/01/01 00:57:53;;;;;;;7.25;5.00;;;;;;;10.86;nan;-24120.31;5091919;28;20227;-69
2022/01/01 01:00:19;;;;;;;7.00;4.78;;;;;;;10.83;nan;-24119.59;5092960;28;20752;-69
2022/01/01 01:02:44;;;;;;;6.40;4.65;;;;;;;10.85;nan;-24120.03;5092398;28;20205;-68
2022/01/01 01:05:10;;;;;;;7.32;5.05;;;;;;;10.63;nan;-24113.97;5092821;28;20243;-68
2022/01/01 01:07:35;;;;;;;7.00;4.90;;;;;;;10.41;nan;-24107.88;5074745;28;20230;-68
2022/01/01 01:10:01;;;;;;;6.30;4.85;;;;;;;10.73;nan;-24116.63;5091337;28;20652;-69
2022/01/01 01:12:37;;;;;;;6.30;4.65;;;;;;;10.78;nan;-24118.03;5091332;28;20598;-69
2022/01/01 01:15:03;;;;;;;6.93;4.70;;;;;;;10.40;nan;-24107.63;5092733;28;20173;-69
2022/01/01 01:17:29;;;;;;;7.95;5.00;;;;;;;10.49;nan;-24110.16;5092685;28;20209;-69
2022/01/01 01:19:54;;;;;;;8.13;5.15;;;;;;;10.39;nan;-24107.19;5092608;28;20201;-69
2022/01/01 01:22:20;;;;;;;7.82;5.40;;;;;;;10.44;nan;-24108.75;5092414;28;20220;-69
2022/01/01 01:24:45;;;;;;;6.72;4.53;;;;;;;10.26;nan;-24103.53;5092497;28;20193;-69
2022/01/01 01:27:10;;;;;;;7.13;5.10;;;;;;;10.67;nan;-24114.94;5092524;28;20199;-69
2022/01/01 01:29:41;;;;;;;7.18;4.90;;;;;;;10.10;nan;-24099.13;5092604;28;20168;-69
2022/01/01 01:32:07;;;;;;;8.18;5.20;;;;;;;10.24;nan;-24103.09;5092886;28;20191;-69
2022/01/01 01:34:33;;;;;;;6.85;4.75;;;;;;;10.15;nan;-24100.53;5092638;28;20173;-69
2022/01/01 01:36:58;;;;;;;7.38;5.07;;;;;;;10.18;nan;-24101.53;5090749;28;20213;-69
2022/01/01 01:39:24;;;;;;;9.00;5.63;;;;;;;9.90;nan;-24093.47;5091494;28;20517;-68
2022/01/01 01:41:51;;;;;;;9.70;5.85;;;;;;;9.90;nan;-24093.63;5091684;28;20204;-68
2022/01/01 01:44:33;;;;;;;9.02;5.75;;;;;;;9.15;nan;-24072.72;5091999;28;20625;-68
2022/01/01 01:47:01;;;;;;;8.05;5.35;;;;;;;9.72;nan;-24088.53;5092146;28;20173;-68
2022/01/01 01:49:27;;;;;;;8.15;5.72;;;;;;;9.83;nan;-24091.66;5092068;28;20218;-69
2022/01/01 01:51:53;;;;;;;8.15;6.18;;;;;;;8.96;nan;-24067.19;5092210;28;20764;-68
2022/01/01 01:54:19;;;;;;;9.10;6.25;;;;;;;8.81;nan;-24063.25;5092251;28;20173;-68
2022/01/01 01:56:45;;;;;;;7.85;5.60;;;;;;;9.02;nan;-24068.91;5092181;28;20181;-69
2022/01/01 01:59:11;;;;;;;7.53;5.43;;;;;;;8.95;nan;-24066.91;5091992;28;20173;-69
2022/01/01 02:01:36;;;;;;;7.70;5.60;;;;;;;8.92;nan;-24066.22;5091045;28;20193;-69
2022/01/01 02:04:02;;;;;;;8.77;5.20;;;;;;;9.53;nan;-24083.16;5091415;28;20568;-69
2022/01/01 02:06:27;;;;;;;8.00;5.57;;;;;;;9.43;nan;-24080.50;5090399;28;20191;-70
2022/01/01 02:08:53;;;;;;;10.95;6.13;;;;;;;9.54;nan;-24083.59;5091832;28;20185;-70
2022/01/01 02:11:21;;;;;;;10.13;6.20;;;;;;;9.92;nan;-24094.06;5091917;28;20215;-69
2022/01/01 02:18:48;;;;;;;5.38;4.30;;;;;;;9.91;nan;-24093.78;5091690;28;20307;-69
2022/01/01 02:21:14;;;;;;;7.57;4.82;;;;;;;9.51;nan;-24082.75;5090692;28;20296;-69
2022/01/01 02:23:44;;;;;;;6.25;4.60;;;;;;;9.61;nan;-24085.44;5091865;28;20176;-69
2022/01/01 02:26:15;;;;;;;7.00;4.60;;;;;;;9.15;nan;-24072.72;5073488;28;20165;-67
2022/01/01 02:28:46;;;;;;;5.82;4.63;;;;;;;8.86;nan;-24064.66;5091608;28;20177;-68
2022/01/01 02:31:16;;;;;;;6.95;4.70;;;;;;;9.64;nan;-24086.44;5091605;28;20173;-68
2022/01/01 02:33:42;;;;;;;8.27;5.57;;;;;;;9.46;nan;-24081.19;5091217;28;20170;-68
2022/01/01 02:36:08;;;;;;;8.90;6.10;;;;;;;8.98;nan;-24067.75;5089481;28;20540;-68
2022/01/01 02:38:35;;;;;;;9.93;6.03;;;;;;;9.11;nan;-24071.59;5073963;28;20197;-69
2022/01/01 02:41:01;;;;;;;9.53;6.37;;;;;;;8.59;nan;-24057.00;5091590;28;20582;-69
2022/01/01 02:43:26;;;;;;;9.60;6.23;;;;;;;8.52;nan;-24054.88;5091552;28;20698;-68
2022/01/01 02:45:53;;;;;;;9.40;6.20;;;;;;;8.16;nan;-24044.97;5091429;28;20177;-68
2022/01/01 02:48:18;;;;;;;9.53;6.13;;;;;;;8.20;nan;-24046.09;5091244;28;20216;-68
2022/01/01 02:50:44;;;;;;;8.77;5.43;;;;;;;8.40;nan;-24051.63;5091577;28;20637;-68
2022/01/01 02:53:16;;;;;;;8.40;6.07;;;;;;;8.10;nan;-24043.13;5091393;28;20227;-69
2022/01/01 02:55:45;;;;;;;7.63;5.73;;;;;;;8.38;nan;-24051.22;5091588;28;20539;-68
2022/01/01 02:58:11;;;;;;;8.27;5.90;;;;;;;8.35;nan;-24050.38;5091495;28;20177;-68
2022/01/01 03:00:38;;;;;;;7.27;5.80;;;;;;;8.39;nan;-24051.34;5091012;28;20180;-68
2022/01/01 03:03:04;;;;;;;6.30;4.47;;;;;;;8.97;nan;-24067.47;5091156;28;20181;-69
2022/01/01 03:05:33;;;;;;;5.13;3.93;;;;;;;8.67;nan;-24059.13;5091483;28;20519;-69
2022/01/01 03:07:59;;;;;;;5.90;4.20;;;;;;;9.15;nan;-24072.72;5091267;28;20625;-69
2022/01/01 03:10:25;;;;;;;5.27;4.20;;;;;;;9.33;nan;-24077.66;5091264;28;20314;-68
2022/01/01 03:12:50;;;;;;;9.23;4.33;;;;;;;9.77;nan;-24089.94;5091536;28;20258;-69
2022/01/01 03:15:15;;;;;;;5.70;4.10;;;;;;;9.42;nan;-24080.06;5091345;28;20645;-68
2022/01/01 03:17:41;;;;;;;5.40;4.00;;;;;;;9.65;nan;-24086.56;5093159;28;20629;-68
2022/01/01 03:20:07;;;;;;;5.53;3.93;;;;;;;9.83;nan;-24091.66;5093413;28;20182;-68
2022/01/01 03:22:33;;;;;;;5.47;4.00;;;;;;;9.79;nan;-24090.38;5094224;28;20212;-68
2022/01/01 03:24:58;;;;;;;4.80;3.53;;;;;;;10.40;nan;-24107.63;5095233;28;20181;-68
2022/01/01 03:27:23;;;;;;;5.00;3.80;;;;;;;9.77;nan;-24090.09;5094803;28;20196;-68
2022/01/01 03:29:49;;;;;;;6.17;3.60;;;;;;;10.05;nan;-24097.72;5094548;28;20181;-68
2022/01/01 03:32:15;;;;;;;4.43;3.47;;;;;;;9.95;nan;-24094.91;5094606;28;20188;-68
2022/01/01 03:34:41;;;;;;;5.67;3.30;;;;;;;9.89;nan;-24093.34;5076860;28;20570;-68
2022/01/01 03:37:06;;;;;;;5.28;3.80;;;;;;;9.94;nan;-24094.63;5094586;28;20180;-68
2022/01/01 03:39:32;;;;;;;4.40;3.35;;;;;;;9.81;nan;-24090.94;5093847;28;20187;-67
2022/01/01 03:41:57;;;;;;;7.27;3.63;;;;;;;9.53;nan;-24083.16;5094456;28;20201;-68
2022/01/01 03:44:22;;;;;;;5.33;4.07;;;;;;;9.02;nan;-24068.91;5094390;28;20188;-68
2022/01/01 03:46:48;;;;;;;5.10;4.03;;;;;;;8.82;nan;-24063.53;5094418;28;20655;-68
2022/01/01 03:49:14;;;;;;;6.40;4.40;;;;;;;9.36;nan;-24078.50;5094402;28;20192;-68
2022/01/01 03:51:41;;;;;;;7.57;4.10;;;;;;;9.09;nan;-24071.03;5094289;28;20316;-68
2022/01/01 03:54:06;;;;;;;5.83;3.47;;;;;;;9.96;nan;-24095.19;5094408;28;20165;-68
2022/01/01 03:56:32;;;;;;;4.97;3.75;;;;;;;9.61;nan;-24085.56;5094232;28;20223;-68
2022/01/01 03:58:57;;;;;;;5.15;3.83;;;;;;;9.43;nan;-24080.50;5094384;28;20169;-69
2022/01/01 04:01:22;;;;;;;4.93;3.97;;;;;;;9.72;nan;-24088.69;5092837;28;20209;-68
2022/01/01 04:03:48;;;;;;;5.82;3.92;;;;;;;9.87;nan;-24092.78;5093507;28;20652;-68
2022/01/01 04:06:13;;;;;;;5.55;4.35;;;;;;;9.60;nan;-24085.16;5094397;28;20260;-68
2022/01/01 04:08:39;;;;;;;5.82;4.05;;;;;;;9.87;nan;-24092.78;5094432;28;20185;-68
2022/01/01 04:11:04;;;;;;;5.10;3.80;;;;;;;9.96;nan;-24095.31;5094106;28;20275;-68
2022/01/01 04:13:30;;;;;;;4.57;3.53;;;;;;;9.78;nan;-24090.25;5093934;28;20606;-68
2022/01/01 04:15:55;;;;;;;5.40;3.22;;;;;;;10.08;nan;-24098.56;5094048;28;20166;-68
2022/01/01 04:18:37;;;;;;;4.03;2.90;;;;;;;10.82;nan;-24119.19;5094211;28;20166;-68
2022/01/01 04:21:04;;;;;;;3.50;2.83;;;;;;;11.11;nan;-24127.22;5093992;28;20197;-67
2022/01/01 04:23:29;;;;;;;3.72;2.90;;;;;;;11.11;nan;-24127.22;5093645;28;20277;-68
2022/01/01 04:25:55;;;;;;;4.25;3.00;;;;;;;11.15;nan;-24128.34;5094231;28;20615;-69
2022/01/01 04:28:20;;;;;;;5.20;3.17;;;;;;;11.05;nan;-24125.66;5093265;28;20188;-68
2022/01/01 04:30:46;;;;;;;2.97;2.67;;;;;;;11.65;nan;-24142.44;5093886;28;20594;-68
2022/01/01 04:33:11;;;;;;;3.60;2.90;;;;;;;11.45;nan;-24136.94;5093894;28;20180;-68
2022/01/01 04:35:36;;;;;;;4.15;3.05;;;;;;;11.30;nan;-24132.56;5094069;28;20178;-67
2022/01/01 04:38:02;;;;;;;4.15;2.78;;;;;;;11.27;nan;-24131.88;5093732;28;20176;-67
2022/01/01 04:40:27;;;;;;;4.57;2.50;;;;;;;11.74;nan;-24144.84;5075269;28;20628;-70
2022/01/01 04:42:53;;;;;;;3.38;2.70;;;;;;;11.63;nan;-24141.72;5093755;28;20228;-68
2022/01/01 04:45:18;;;;;;;3.00;2.53;;;;;;;11.88;nan;-24148.78;5093449;28;20562;-69
2022/01/01 04:47:43;;;;;;;3.50;2.70;;;;;;;11.69;nan;-24143.41;5093920;28;20169;-69
2022/01/01 04:50:09;;;;;;;4.20;3.03;;;;;;;11.29;nan;-24132.28;5093261;28;20278;-68
2022/01/01 04:52:34;;;;;;;4.80;2.90;;;;;;;11.57;nan;-24140.03;5093311;28;20192;-68
2022/01/01 04:55:00;;;;;;;3.58;2.67;;;;;;;11.81;nan;-24146.81;5093375;28;20248;-70
2022/01/01 04:57:30;;;;;;;3.60;2.90;;;;;;;11.65;nan;-24142.44;5074748;28;20169;-68
2022/01/01 04:59:56;;;;;;;3.97;2.78;;;;;;;11.62;nan;-24141.44;5093376;28;20629;-67
2022/01/01 05:02:22;;;;;;;3.85;2.70;;;;;;;11.19;nan;-24129.47;5093007;28;20204;-67
2022/01/01 05:04:47;;;;;;;4.03;3.17;;;;;;;10.95;nan;-24122.84;5093308;28;20173;-67
2022/01/01 05:07:13;;;;;;;4.25;3.08;;;;;;;11.11;nan;-24127.34;5093380;28;20195;-67
2022/01/01 05:09:38;;;;;;;3.70;2.85;;;;;;;11.19;nan;-24129.47;5092882;28;20165;-67
2022/01/01 05:12:04;;;;;;;4.22;2.90;;;;;;;11.16;nan;-24128.75;5092684;28;20551;-67
2022/01/01 05:14:31;;;;;;;4.00;3.30;;;;;;;10.92;nan;-24122.13;5092843;28;20169;-67
2022/01/01 05:16:57;;;;;;;4.25;3.13;;;;;;;11.05;nan;-24125.66;5092690;28;20177;-68
2022/01/01 05:19:22;;;;;;;4.70;3.15;;;;;;;11.06;nan;-24125.94;5093106;28;20181;-68
2022/01/01 05:21:47;;;;;;;4.10;3.10;;;;;;;11.06;nan;-24125.94;5092655;28;20200;-67
2022/01/01 05:24:18;;;;;;;4.65;3.00;;;;;;;11.36;nan;-24134.25;5092362;28;20173;-67
2022/01/01 05:26:44;;;;;;;7.00;3.30;;;;;;;11.23;nan;-24130.75;5092959;28;20169;-68
2022/01/01 05:29:09;;;;;;;5.43;3.35;;;;;;;11.42;nan;-24135.97;5092222;28;20203;-68
2022/01/01 05:31:35;;;;;;;4.50;3.33;;;;;;;11.75;nan;-24145.25;5092705;28;20192;-67
2022/01/01 05:34:00;;;;;;;4.68;2.90;;;;;;;11.55;nan;-24139.47;5091878;28;20562;-67
2022/01/01 05:36:26;;;;;;;5.18;3.08;;;;;;;11.90;nan;-24149.47;5089856;28;20176;-67
2022/01/01 05:38:51;;;;;;;4.97;3.20;;;;;;;11.44;nan;-24136.66;5091501;28;20259;-67
2022/01/01 05:41:17;;;;;;;3.63;2.95;;;;;;;11.99;nan;-24151.88;5091498;28;20200;-68
2022/01/01 05:43:42;;;;;;;4.15;3.20;;;;;;;12.05;nan;-24153.56;5092533;28;20177;-68
2022/01/01 05:46:07;;;;;;;4.38;3.00;;;;;;;11.92;nan;-24150.03;5092179;28;20212;-68
2022/01/01 05:48:33;;;;;;;3.35;2.83;;;;;;;11.89;nan;-24149.19;5092002;28;20592;-67
2022/01/01 05:50:59;;;;;;;4.85;3.00;;;;;;;11.70;nan;-24143.69;5090410;28;20221;-67
2022/01/01 05:53:25;;;;;;;3.55;2.97;;;;;;;11.68;nan;-24143.28;5092337;28;20264;-68
2022/01/01 05:55:50;;;;;;;4.53;3.13;;;;;;;11.94;nan;-24150.47;5091635;28;20193;-68
2022/01/01 05:58:16;;;;;;;4.38;2.97;;;;;;;11.69;nan;-24143.41;5091757;28;20201;-69
2022/01/01 06:00:41;;;;;;;4.07;3.00;;;;;;;11.96;nan;-24151.03;5092234;28;20196;-68
2022/01/01 06:03:07;;;;;;;4.18;3.30;;;;;;;11.75;nan;-24145.13;5091614;28;20209;-68
2022/01/01 06:05:33;;;;;;;5.90;3.35;;;;;;;11.54;nan;-24139.34;5092464;28;20176;-67
2022/01/01 06:07:59;;;;;;;4.20;3.13;;;;;;;11.77;nan;-24145.69;5092210;28;20554;-69
2022/01/01 06:10:25;;;;;;;4.05;3.20;;;;;;;11.97;nan;-24151.31;5091668;28;20177;-69
2022/01/01 06:12:52;;;;;;;3.67;3.03;;;;;;;11.47;nan;-24137.50;5092161;28;20238;-69
2022/01/01 06:15:17;;;;;;;5.00;3.28;;;;;;;11.70;nan;-24143.69;5091895;28;20254;-69
2022/01/01 06:17:43;;;;;;;4.75;3.08;;;;;;;11.36;nan;-24134.41;5092301;28;20609;-69
2022/01/01 06:20:09;;;;;;;3.80;2.88;;;;;;;11.22;nan;-24130.31;5091925;28;20169;-69
2022/01/01 06:22:34;;;;;;;4.50;3.20;;;;;;;11.59;nan;-24140.59;5091624;28;20197;-68
2022/01/01 06:25:00;;;;;;;4.40;3.38;;;;;;;11.52;nan;-24138.91;5091959;28;20177;-69
2022/01/01 06:27:25;;;;;;;3.28;2.90;;;;;;;10.96;nan;-24123.13;5091424;28;20260;-68
2022/01/01 06:29:51;;;;;;;3.75;3.00;;;;;;;11.52;nan;-24138.78;5090347;28;20687;-69
2022/01/01 06:32:16;;;;;;;4.75;3.00;;;;;;;11.45;nan;-24136.81;5092305;28;20180;-68
2022/01/01 06:34:42;;;;;;;5.15;3.15;;;;;;;11.26;nan;-24131.44;5093081;28;20176;-68
2022/01/01 06:37:07;;;;;;;6.40;3.20;;;;;;;11.64;nan;-24142.16;5091810;28;20180;-68
2022/01/01 06:39:33;;;;;;;4.78;3.30;;;;;;;11.63;nan;-24141.72;5091869;28;20165;-70
2022/01/01 06:41:58;;;;;;;5.00;3.35;;;;;;;11.71;nan;-24143.97;5091741;28;20240;-68
2022/01/01 06:44:24;;;;;;;4.07;3.13;;;;;;;11.57;nan;-24140.03;5093600;28;20248;-68
2022/01/01 06:46:49;;;;;;;4.28;3.15;;;;;;;11.52;nan;-24138.91;5092350;28;20172;-72
2022/01/01 06:49:15;;;;;;;5.15;3.70;;;;;;;11.51;nan;-24138.63;5092432;28;20629;-70
2022/01/01 06:51:40;;;;;;;6.75;3.95;;;;;;;11.55;nan;-24139.47;5093449;28;20224;-71
2022/01/01 06:54:06;;;;;;;5.75;4.25;;;;;;;11.40;nan;-24135.53;5095601;28;20230;-69
2022/01/01 06:56:32;;;;;;;5.75;3.80;;;;;;;11.12;nan;-24127.63;5094187;28;20267;-68
2022/01/01 06:58:57;;;;;;;4.60;3.35;;;;;;;11.35;nan;-24134.13;5095529;28;20177;-69
2022/01/01 07:01:23;;;;;;;3.90;3.17;;;;;;;11.38;nan;-24134.81;5095248;28;20733;-68
2022/01/01 07:03:48;;;;;;;9.30;3.20;;;;;;;11.51;nan;-24138.63;5095581;28;20231;-69
2022/01/01 07:06:13;;;;;;;4.78;2.97;;;;;;;11.35;nan;-24134.13;5095299;28;20196;-68
2022/01/01 07:08:39;;;;;;;4.00;3.03;;;;;;;11.61;nan;-24141.31;5095853;28;20173;-68
2022/01/01 07:11:04;;;;;;;3.85;2.70;;;;;;;11.70;nan;-24143.69;5094915;28;20307;-68
2022/01/01 07:13:30;;;;;;;4.03;2.97;;;;;;;12.22;nan;-24158.34;5095043;28;20264;-68
2022/01/01 07:15:55;;;;;;;4.65;3.08;;;;;;;12.19;nan;-24157.50;5095572;28;20553;-68
2022/01/01 07:18:20;;;;;;;6.82;3.00;;;;;;;11.90;nan;-24149.47;5095058;28;20173;-68
2022/01/01 07:20:46;;;;;;;4.35;3.10;;;;;;;12.39;nan;-24163.13;5095409;28;20524;-69
2022/01/01 07:23:11;;;;;;;5.57;3.17;;;;;;;12.07;nan;-24154.00;5095178;28;20174;-69
2022/01/01 07:25:37;;;;;;;4.00;3.00;;;;;;;12.45;nan;-24164.53;5094952;28;20180;-68
2022/01/01 07:28:03;;;;;;;4.30;2.97;;;;;;;12.46;nan;-24164.81;5077244;28;20284;-68
2022/01/01 07:30:28;;;;;;;5.03;2.70;;;;;;;12.40;nan;-24163.41;5095625;28;20173;-73
2022/01/01 07:32:54;;;;;;;3.53;2.80;;;;;;;12.24;nan;-24158.91;5096258;28;20177;-68
2022/01/01 07:35:21;;;;;;;3.78;2.97;;;;;;;12.30;nan;-24160.59;5095036;28;20564;-68
2022/01/01 07:37:47;;;;;;;2.88;2.40;;;;;;;12.67;nan;-24170.88;5095038;28;20177;-70
2022/01/01 07:40:15;;;;;;;4.32;2.80;;;;;;;12.32;nan;-24161.03;5094677;28;20173;-69
2022/01/01 07:42:41;;;;;;;3.30;2.60;;;;;;;12.51;nan;-24166.38;5093658;28;20589;-68
2022/01/01 07:45:08;;;;;;;2.88;2.50;;;;;;;12.63;nan;-24169.59;5094482;28;20181;-69
2022/01/01 07:47:34;;;;;;;3.22;2.40;;;;;;;12.75;nan;-24172.97;5093110;28;20180;-68
2022/01/01 07:49:59;;;;;;;3.58;2.50;;;;;;;12.85;nan;-24175.94;5094275;28;20177;-68
2022/01/01 07:52:25;;;;;;;3.47;2.67;;;;;;;13.38;nan;-24190.56;5094030;28;20263;-69
2022/01/01 07:54:51;;;;;;;3.50;2.83;;;;;;;13.26;nan;-24187.31;5093587;28;20750;-69
2022/01/01 07:57:16;;;;;;;3.25;2.65;;;;;;;13.19;nan;-24185.34;5094365;28;20177;-69
2022/01/01 07:59:41;;;;;;;3.50;2.40;;;;;;;13.13;nan;-24183.66;5094156;28;20192;-69
2022/01/01 08:02:08;;;;;;;3.25;2.65;;;;;;;13.45;nan;-24192.53;5094120;28;20231;-69
2022/01/01 08:04:33;;;;;;;4.63;2.60;;;;;;;13.68;nan;-24198.97;5093129;28;20195;-69
2022/01/01 08:06:59;;;;;;;4.60;2.90;;;;;;;13.21;nan;-24185.78;5094089;28;20248;-69
2022/01/01 08:09:24;;;;;;;4.00;2.90;;;;;;;13.44;nan;-24192.09;5091452;28;20282;-69
2022/01/01 08:11:54;;;;;;;4.47;2.50;;;;;;;13.60;nan;-24196.59;5093827;28;20169;-69
2022/01/01 08:14:22;;;;;;;3.53;2.65;;;;;;;13.44;nan;-24192.25;5094459;28;20177;-68
2022/01/01 08:17:02;;;;;;;4.18;3.03;;;;;;;13.23;nan;-24186.34;5094030;28;20265;-68
2022/01/01 08:19:28;;;;;;;4.28;3.30;;;;;;;13.80;nan;-24202.19;5094086;28;20181;-68
2022/01/01 08:21:54;;;;;;;4.53;3.10;;;;;;;13.45;nan;-24192.53;5093652;28;20193;-70
2022/01/01 08:24:20;;;;;;;4.97;3.40;;;;;;;13.94;nan;-24206.00;5093440;28;20609;-69
2022/01/01 08:26:46;;;;;;;4.22;3.17;;;;;;;14.10;nan;-24210.50;5093912;28;20572;-69
2022/01/01 08:29:11;;;;;;;4.57;3.00;;;;;;;14.27;nan;-24215.13;5093608;28;20675;-68
2022/01/01 08:31:37;;;;;;;5.57;3.45;;;;;;;14.29;nan;-24215.81;5093604;28;20169;-69
2022/01/01 08:34:02;;;;;;;5.90;3.15;;;;;;;14.39;nan;-24218.63;5093651;28;20181;-69
2022/01/01 08:36:28;;;;;;;4.55;3.60;;;;;;;14.37;nan;-24218.06;5093508;28;20195;-68
2022/01/01 08:38:53;;;;;;;4.35;3.30;;;;;;;14.11;nan;-24210.91;5093407;28;20272;-69
2022/01/01 08:41:19;;;;;;;5.57;3.47;;;;;;;14.54;nan;-24222.84;5091867;28;20200;-69
2022/01/01 08:43:44;;;;;;;6.05;4.00;;;;;;;14.46;nan;-24220.44;5092936;28;20178;-69
2022/01/01 08:46:10;;;;;;;5.70;3.60;;;;;;;14.44;nan;-24219.88;5093245;28;20166;-69
2022/01/01 08:48:36;;;;;;;4.68;3.50;;;;;;;14.23;nan;-24214.13;5093245;28;20648;-67
2022/01/01 08:51:22;;;;;;;6.25;3.83;;;;;;;14.51;nan;-24222.00;5093144;28;20251;-67
2022/01/01 08:53:48;;;;;;;6.70;3.97;;;;;;;13.95;nan;-24206.28;5093513;28;20632;-68
2022/01/01 08:56:14;;;;;;;6.32;3.38;;;;;;;14.22;nan;-24213.72;5092609;28;20193;-69
2022/01/01 08:58:40;;;;;;;5.40;3.50;;;;;;;14.03;nan;-24208.53;5092786;28;20173;-68
2022/01/01 09:01:06;;;;;;;6.28;3.45;;;;;;;14.38;nan;-24218.22;5092797;28;20200;-68
2022/01/01 09:03:34;;;;;;;4.63;3.35;;;;;;;14.00;nan;-24207.81;5092752;28;20232;-69
2022/01/01 09:06:01;;;;;;;4.75;3.30;;;;;;;14.21;nan;-24213.44;5092950;28;20169;-69
2022/01/01 09:08:26;;;;;;;6.60;3.60;;;;;;;14.45;nan;-24220.16;5092868;28;20177;-70
2022/01/01 09:10:52;;;;;;;5.22;3.92;;;;;;;14.88;nan;-24232.22;5092620;28;20180;-69
2022/01/01 09:13:17;;;;;;;6.00;4.20;;;;;;;14.96;nan;-24234.47;5092589;28;20641;-68
2022/01/01 09:15:43;;;;;;;4.70;3.50;;;;;;;15.00;nan;-24235.59;5092748;28;20237;-70
2022/01/01 09:18:08;;;;;;;7.63;4.00;;;;;;;15.10;nan;-24238.25;5093065;28;20174;-68
2022/01/01 09:20:33;;;;;;;5.35;3.88;;;;;;;15.17;nan;-24240.06;5092746;28;20181;-67
2022/01/01 09:22:59;;;;;;;6.10;4.32;;;;;;;14.94;nan;-24233.91;5092626;28;20204;-69
2022/01/01 09:25:24;;;;;;;5.97;3.90;;;;;;;15.50;nan;-24249.31;5093006;28;20174;-69
2022/01/01 09:27:49;;;;;;;5.03;3.85;;;;;;;15.36;nan;-24245.53;5092869;28;20205;-69
2022/01/01 09:30:15;;;;;;;6.55;4.50;;;;;;;15.57;nan;-24251.28;5092559;28;20674;-69
2022/01/01 09:32:40;;;;;;;5.60;4.05;;;;;;;15.23;nan;-24241.88;5092305;28;20180;-69
2022/01/01 09:35:06;;;;;;;6.35;4.20;;;;;;;15.32;nan;-24244.41;5091039;28;20713;-69
2022/01/01 09:37:32;;;;;;;6.10;4.20;;;;;;;15.71;nan;-24255.06;5091148;28;20264;-70
2022/01/01 09:39:58;;;;;;;6.75;3.60;;;;;;;15.36;nan;-24245.38;5092619;28;20248;-69
2022/01/01 09:42:24;;;;;;;6.15;3.40;;;;;;;15.40;nan;-24246.50;5092196;28;20212;-68
2022/01/01 09:44:52;;;;;;;3.78;2.85;;;;;;;15.68;nan;-24254.22;5092315;28;20165;-69
2022/01/01 09:47:18;;;;;;;5.95;2.42;;;;;;;15.55;nan;-24250.56;5092281;28;20201;-68
2022/01/01 09:49:43;;;;;;;3.17;2.67;;;;;;;15.56;nan;-24250.84;5092412;28;20219;-68
2022/01/01 09:52:09;;;;;;;4.25;2.92;;;;;;;15.25;nan;-24242.31;5092966;28;20557;-69
2022/01/01 09:54:36;;;;;;;3.75;2.85;;;;;;;15.36;nan;-24245.53;5092502;28;20207;-69
2022/01/01 09:57:02;;;;;;;4.90;3.00;;;;;;;15.27;nan;-24243.00;5092273;28;20168;-69
2022/01/01 09:59:28;;;;;;;4.75;3.55;;;;;;;15.31;nan;-24244.13;5092387;28;20169;-71
2022/01/01 10:01:53;;;;;;;8.60;3.58;;;;;;;15.78;nan;-24257.16;5092369;28;20627;-70
2022/01/01 10:04:19;;;;;;;7.78;3.38;;;;;;;15.83;nan;-24258.56;5092160;28;20180;-70
2022/01/01 10:07:00;;;;;;;4.38;3.30;;;;;;;16.10;nan;-24265.81;5090790;28;20173;-70
2022/01/01 10:09:31;;;;;;;5.53;2.85;;;;;;;16.11;nan;-24266.09;5092213;28;20181;-69
2022/01/01 10:11:56;;;;;;;3.22;2.60;;;;;;;16.56;nan;-24278.69;5091568;28;20491;-69
2022/01/01 10:14:46;;;;;;;4.10;2.80;;;;;;;16.66;nan;-24281.50;5091563;28;20275;-68
2022/01/01 10:17:16;;;;;;;4.88;2.63;;;;;;;16.78;nan;-24284.69;5090423;28;20242;-70
2022/01/01 10:19:42;;;;;;;3.95;2.90;;;;;;;16.90;nan;-24287.91;5091742;28;20667;-71
2022/01/01 10:22:12;;;;;;;6.40;3.25;;;;;;;16.48;nan;-24276.44;5092193;28;20279;-70
2022/01/01 10:27:42;;;;;;;5.35;3.33;;;;;;;16.49;nan;-24276.72;5091751;28;20185;-70
2022/01/01 10:30:19;;;;;;;5.70;2.95;;;;;;;16.63;nan;-24280.66;5091614;28;20176;-69
2022/01/01 10:33:14;;;;;;;5.00;3.78;;;;;;;16.65;nan;-24281.22;5091589;28;20173;-70
2022/01/01 10:35:47;;;;;;;7.10;4.07;;;;;;;16.28;nan;-24270.84;5091455;28;20601;-68
2022/01/01 10:38:22;;;;;;;6.65;4.93;;;;;;;16.13;nan;-24266.66;5092283;28;20678;-69
2022/01/01 10:40:53;;;;;;;4.22;3.20;;;;;;;16.74;nan;-24283.59;5091860;28;20199;-70
2022/01/01 10:43:20;;;;;;;5.47;3.10;;;;;;;16.44;nan;-24275.34;5091684;28;20222;-69
2022/01/01 10:45:47;;;;;;;3.63;2.83;;;;;;;16.58;nan;-24279.25;5091666;28;20177;-70
2022/01/01 10:50:49;;;;;;;3.95;2.75;;;;;;;16.65;nan;-24281.22;5091490;28;20228;-69
2022/01/01 10:53:28;;;;;;;2.88;2.40;;;;;;;16.48;nan;-24276.44;5091211;28;20578;-71
2022/01/01 10:55:59;;;;;;;4.22;2.38;;;;;;;16.74;nan;-24283.59;5091673;28;20660;-70
2022/01/01 10:58:34;;;;;;;3.13;2.50;;;;;;;17.13;nan;-24294.34;5092453;28;20651;-68
2022/01/01 11:01:05;;;;;;;3.13;2.35;;;;;;;17.17;nan;-24295.44;5091621;28;20258;-68
2022/01/01 11:03:41;;;;;;;3.63;2.13;;;;;;;17.28;nan;-24298.38;5091468;28;20267;-70
2022/01/01 11:06:10;;;;;;;4.07;2.20;;;;;;;17.57;nan;-24306.63;5090477;28;20188;-68
2022/01/01 11:08:37;;;;;;;3.60;2.67;;;;;;;17.92;nan;-24316.09;5091521;28;20632;-70
2022/01/01 11:11:03;;;;;;;5.05;2.88;;;;;;;17.83;nan;-24313.59;5091691;28;20184;-69
2022/01/01 11:13:31;;;;;;;3.78;2.60;;;;;;;18.00;nan;-24318.34;5091598;28;20217;-70
2022/01/01 11:15:57;;;;;;;3.88;2.47;;;;;;;17.77;nan;-24311.91;5091168;28;20248;-69
2022/01/01 11:18:24;;;;;;;3.47;2.50;;;;;;;17.43;nan;-24302.56;5091218;28;20197;-69
2022/01/01 11:20:51;;;;;;;3.13;2.55;;;;;;;17.47;nan;-24303.81;5091224;28;20689;-69
2022/01/01 11:23:18;;;;;;;3.47;2.72;;;;;;;17.45;nan;-24303.28;5091379;28;20177;-69
2022/01/01 11:25:43;;;;;;;4.43;2.95;;;;;;;17.46;nan;-24303.56;5091682;28;20173;-69
2022/01/01 11:28:12;;;;;;;3.63;2.65;;;;;;;17.63;nan;-24308.16;5091676;28;20206;-69
2022/01/01 11:31:13;;;;;;;3.45;2.70;;;;;;;17.74;nan;-24311.22;5091227;28;20215;-68
2022/01/01 11:33:41;;;;;;;4.55;2.90;;;;;;;17.67;nan;-24309.41;5073865;28;20185;-69
2022/01/01 11:36:08;;;;;;;4.88;3.13;;;;;;;17.32;nan;-24299.63;5091316;28;20165;-69
2022/01/01 11:38:35;;;;;;;4.28;3.10;;;;;;;17.56;nan;-24306.34;5093112;28;20215;-70
2022/01/01 11:41:11;;;;;;;5.10;3.00;;;;;;;17.88;nan;-24315.13;5095067;28;20181;-69
2022/01/01 11:43:43;;;;;;;4.25;2.88;;;;;;;17.90;nan;-24315.53;5095156;28;20177;-69
2022/01/01 11:46:21;;;;;;;7.20;3.00;;;;;;;17.67;nan;-24309.41;5094800;28;20248;-70
2022/01/01 11:48:48;;;;;;;4.47;3.05;;;;;;;17.88;nan;-24315.00;5094820;28;20170;-69
2022/01/01 11:51:24;;;;;;;3.58;2.67;;;;;;;17.66;nan;-24309.00;5094385;28;20221;-69
2022/01/01 11:54:03;;;;;;;4.03;2.90;;;;;;;17.25;nan;-24297.56;5094398;28;20621;-70